Terminal Aerodrome Forecast
Issued by NWS

Current Version | Previous Version | Graphics & Text | Print | Product List | Glossary On
Versions: 1 2 3 4 5 6 7 8 9 10 11 12 13 14 15 16 17 18
741
FTUS41 KPBZ 151725
TAFHLG
TAF
KHLG 151725Z 1518/1618 27003KT P6SM SCT050
      TEMPO 1518/1519 BKN030
     FM160000 30003KT P6SM FEW250
     FM160600 00000KT 3SM BR FEW250
     FM161100 00000KT 1SM BR SCT003
     FM161400 VRB04KT P6SM SCT050=

USA.gov is the U.S. government's official web portal to all federal, state and local government web resources and services.